LOT639 EPWA-LROP
Flight info
| Callsign | LOT639 |
|---|---|
| Flight time | 1h 21m |
| Altitude | 37000 |
| Route | XIMBA N195 NATEV DCT ROBTU DCT KENIN DCT KARIL DCT DENAK |
| Aircraft | E195/M-SDE3GILORVW/S |
Departure
| Time | 2026-05-01 07:23 |
|---|---|
| Airport | Warsaw Chopin Airport (EPWA) |
Arrival
| Time | 2026-05-01 08:44 |
|---|---|
| Airport | Bucharest Henri Coandă International Airport (LROP) |
| Time | Latitude | Longitude | Altitude | Speed | Heading |
|---|---|---|---|---|---|
| 2026-05-01 07:23 | 52.07680 | 20.77050 | 9499 ft | 281 kts | 102° |
| 2026-05-01 07:23 | 52.06513 | 20.83273 | 10471 ft | 304 kts | 107° |
| 2026-05-01 07:24 | 52.05454 | 20.86351 | 10956 ft | 317 kts | 118° |
| 2026-05-01 07:24 | 52.04123 | 20.89247 | 11574 ft | 323 kts | 123° |
| 2026-05-01 07:24 | 52.02642 | 20.92023 | 12189 ft | 327 kts | 127° |
| 2026-05-01 07:24 | 52.01068 | 20.94727 | 12797 ft | 331 kts | 128° |
| 2026-05-01 07:25 | 51.99443 | 20.97419 | 13398 ft | 335 kts | 128° |
| 2026-05-01 07:25 | 51.97768 | 21.00089 | 14012 ft | 340 kts | 131° |
| 2026-05-01 07:25 | 51.95940 | 21.02590 | 14571 ft | 345 kts | 134° |
| 2026-05-01 07:25 | 51.94098 | 21.05090 | 15137 ft | 348 kts | 134° |
| 2026-05-01 07:26 | 51.92224 | 21.07583 | 15710 ft | 350 kts | 134° |
| 2026-05-01 07:26 | 51.90326 | 21.10108 | 16268 ft | 353 kts | 134° |
| 2026-05-01 07:26 | 51.88421 | 21.12640 | 16819 ft | 356 kts | 133° |
| 2026-05-01 07:26 | 51.86498 | 21.15191 | 17371 ft | 358 kts | 133° |
| 2026-05-01 07:27 | 51.84586 | 21.17727 | 17934 ft | 361 kts | 133° |
| 2026-05-01 07:27 | 51.82637 | 21.20310 | 18506 ft | 364 kts | 133° |
| 2026-05-01 07:27 | 51.80665 | 21.22919 | 19022 ft | 367 kts | 133° |
| 2026-05-01 07:27 | 51.78686 | 21.25535 | 19528 ft | 370 kts | 133° |
| 2026-05-01 07:28 | 51.76683 | 21.28179 | 20042 ft | 372 kts | 133° |
| 2026-05-01 07:28 | 51.74667 | 21.30837 | 20557 ft | 375 kts | 133° |
| 2026-05-01 07:28 | 51.72643 | 21.33503 | 21057 ft | 378 kts | 132° |
| 2026-05-01 07:28 | 51.70590 | 21.36206 | 21534 ft | 381 kts | 132° |
| 2026-05-01 07:29 | 51.68529 | 21.38912 | 21995 ft | 384 kts | 132° |
| 2026-05-01 07:29 | 51.66444 | 21.41621 | 22468 ft | 387 kts | 133° |
| 2026-05-01 07:29 | 51.64171 | 21.44067 | 22895 ft | 397 kts | 141° |
| 2026-05-01 07:29 | 51.61813 | 21.46399 | 23341 ft | 399 kts | 140° |
| 2026-05-01 07:30 | 51.59418 | 21.48708 | 23794 ft | 403 kts | 141° |
| 2026-05-01 07:30 | 51.57008 | 21.51026 | 24213 ft | 405 kts | 140° |
| 2026-05-01 07:30 | 51.54579 | 21.53354 | 24615 ft | 407 kts | 140° |
| 2026-05-01 07:30 | 51.52135 | 21.55694 | 25014 ft | 410 kts | 141° |
| 2026-05-01 07:31 | 51.49706 | 21.58018 | 25391 ft | 412 kts | 140° |
| 2026-05-01 07:31 | 51.42232 | 21.65150 | 26487 ft | 418 kts | 141° |
| 2026-05-01 07:32 | 51.37234 | 21.69908 | 27140 ft | 422 kts | 140° |
| 2026-05-01 07:32 | 51.34692 | 21.72325 | 27469 ft | 424 kts | 140° |
| 2026-05-01 07:33 | 51.29597 | 21.77166 | 28095 ft | 428 kts | 140° |
| 2026-05-01 07:33 | 51.27020 | 21.79608 | 28437 ft | 430 kts | 140° |
| 2026-05-01 07:33 | 51.21858 | 21.84504 | 29055 ft | 434 kts | 140° |
| 2026-05-01 07:34 | 51.19241 | 21.86960 | 29354 ft | 436 kts | 140° |
| 2026-05-01 07:34 | 51.13981 | 21.91906 | 29844 ft | 443 kts | 140° |
| 2026-05-01 07:35 | 51.08640 | 21.96899 | 30281 ft | 449 kts | 141° |
| 2026-05-01 07:35 | 51.05951 | 21.99412 | 30614 ft | 448 kts | 140° |
| 2026-05-01 07:35 | 51.03254 | 22.01925 | 30904 ft | 448 kts | 140° |
| 2026-05-01 07:35 | 51.00563 | 22.04432 | 31208 ft | 447 kts | 140° |
| 2026-05-01 07:36 | 50.97877 | 22.06931 | 31474 ft | 447 kts | 140° |
| 2026-05-01 07:36 | 50.95191 | 22.09423 | 31762 ft | 446 kts | 140° |
| 2026-05-01 07:36 | 50.92513 | 22.11907 | 32055 ft | 445 kts | 140° |
| 2026-05-01 07:36 | 50.89864 | 22.14334 | 32320 ft | 447 kts | 142° |
| 2026-05-01 07:37 | 50.83849 | 22.17591 | 32834 ft | 469 kts | 163° |
| 2026-05-01 07:37 | 50.80557 | 22.18062 | 33082 ft | 478 kts | 173° |
| 2026-05-01 07:37 | 50.77211 | 22.17721 | 33334 ft | 486 kts | 182° |
| 2026-05-01 07:38 | 50.73859 | 22.16818 | 33595 ft | 488 kts | 186° |
| 2026-05-01 07:38 | 50.70531 | 22.15766 | 33840 ft | 488 kts | 187° |
| 2026-05-01 07:38 | 50.63876 | 22.13544 | 34332 ft | 488 kts | 187° |
| 2026-05-01 07:39 | 50.60599 | 22.12443 | 34551 ft | 488 kts | 186° |
| 2026-05-01 07:39 | 50.57268 | 22.11626 | 34770 ft | 482 kts | 181° |
| 2026-05-01 07:39 | 50.50876 | 22.10386 | 35236 ft | 480 kts | 181° |
| 2026-05-01 07:40 | 50.47554 | 22.09768 | 35477 ft | 479 kts | 181° |
| 2026-05-01 07:40 | 50.44245 | 22.09162 | 35708 ft | 478 kts | 181° |
| 2026-05-01 07:40 | 50.40934 | 22.08554 | 35931 ft | 477 kts | 181° |
| 2026-05-01 07:40 | 50.37637 | 22.07947 | 36156 ft | 476 kts | 181° |
| 2026-05-01 07:41 | 50.34357 | 22.07348 | 36376 ft | 475 kts | 182° |
| 2026-05-01 07:41 | 50.31073 | 22.06743 | 36592 ft | 474 kts | 182° |
| 2026-05-01 07:41 | 50.24530 | 22.05546 | 37017 ft | 472 kts | 182° |
| 2026-05-01 07:42 | 50.21269 | 22.04949 | 37206 ft | 470 kts | 182° |
| 2026-05-01 07:42 | 50.14858 | 22.03781 | 37349 ft | 464 kts | 182° |
| 2026-05-01 07:43 | 50.08395 | 22.02604 | 37387 ft | 471 kts | 182° |
| 2026-05-01 07:43 | 49.98501 | 22.00808 | 37381 ft | 483 kts | 182° |
| 2026-05-01 07:44 | 49.84980 | 21.98366 | 37368 ft | 493 kts | 182° |
| 2026-05-01 07:45 | 49.78184 | 21.97146 | 37371 ft | 491 kts | 182° |
| 2026-05-01 07:45 | 49.71386 | 21.95876 | 37326 ft | 493 kts | 184° |
| 2026-05-01 07:46 | 49.67994 | 21.95040 | 37193 ft | 491 kts | 187° |
| 2026-05-01 07:46 | 49.64668 | 21.93956 | 36791 ft | 485 kts | 190° |
| 2026-05-01 07:46 | 49.58162 | 21.90784 | 35071 ft | 496 kts | 194° |
| 2026-05-01 07:47 | 49.54924 | 21.89443 | 35169 ft | 472 kts | 183° |
| 2026-05-01 07:47 | 49.51681 | 21.88996 | 35310 ft | 465 kts | 172° |
| 2026-05-01 07:47 | 49.48455 | 21.89142 | 35443 ft | 464 kts | 169° |
| 2026-05-01 07:47 | 49.45264 | 21.89371 | 35571 ft | 467 kts | 170° |
| 2026-05-01 07:48 | 49.38725 | 21.89636 | 35815 ft | 473 kts | 172° |
| 2026-05-01 07:48 | 49.35414 | 21.89544 | 35928 ft | 480 kts | 179° |
| 2026-05-01 07:48 | 49.32081 | 21.88949 | 36046 ft | 484 kts | 181° |
| 2026-05-01 07:49 | 49.28740 | 21.88383 | 36155 ft | 482 kts | 181° |
| 2026-05-01 07:49 | 49.22093 | 21.87204 | 36372 ft | 480 kts | 181° |
| 2026-05-01 07:49 | 49.18785 | 21.86620 | 36486 ft | 479 kts | 181° |
| 2026-05-01 07:50 | 49.15467 | 21.86036 | 36582 ft | 479 kts | 181° |
| 2026-05-01 07:50 | 49.08856 | 21.84878 | 36786 ft | 477 kts | 181° |
| 2026-05-01 07:50 | 49.05561 | 21.84304 | 36889 ft | 477 kts | 182° |
| 2026-05-01 07:51 | 49.02256 | 21.83727 | 36995 ft | 477 kts | 182° |
| 2026-05-01 07:51 | 48.98960 | 21.83154 | 37107 ft | 476 kts | 182° |
| 2026-05-01 07:52 | 48.89162 | 21.82000 | 37310 ft | 469 kts | 173° |
| 2026-05-01 07:52 | 48.82721 | 21.82957 | 37364 ft | 464 kts | 167° |
| 2026-05-01 07:53 | 48.73160 | 21.84957 | 37364 ft | 461 kts | 166° |
| 2026-05-01 07:53 | 48.66801 | 21.86297 | 37362 ft | 461 kts | 166° |
| 2026-05-01 07:55 | 48.50925 | 21.89635 | 37361 ft | 460 kts | 166° |
| 2026-05-01 07:56 | 48.36309 | 21.93358 | 37364 ft | 448 kts | 153° |
| 2026-05-01 07:57 | 48.28234 | 22.00008 | 37364 ft | 439 kts | 142° |
| 2026-05-01 07:58 | 48.17832 | 22.09500 | 37355 ft | 439 kts | 142° |
| 2026-05-01 07:59 | 48.07396 | 22.18987 | 37359 ft | 439 kts | 142° |
| 2026-05-01 07:59 | 48.02574 | 22.24419 | 37365 ft | 427 kts | 127° |
| 2026-05-01 08:00 | 47.94743 | 22.37686 | 37364 ft | 429 kts | 128° |
| 2026-05-01 08:01 | 47.86310 | 22.50301 | 37361 ft | 430 kts | 129° |
| 2026-05-01 08:02 | 47.79981 | 22.59674 | 37360 ft | 430 kts | 129° |
| 2026-05-01 08:03 | 47.73599 | 22.69096 | 37356 ft | 431 kts | 129° |
| 2026-05-01 08:03 | 47.67199 | 22.78514 | 37367 ft | 432 kts | 129° |
| 2026-05-01 08:04 | 47.58632 | 22.91065 | 37376 ft | 433 kts | 130° |
| 2026-05-01 08:05 | 47.52192 | 23.00462 | 37357 ft | 433 kts | 130° |
| 2026-05-01 08:06 | 47.45738 | 23.09846 | 37349 ft | 434 kts | 130° |
| 2026-05-01 08:07 | 47.37141 | 23.22291 | 37340 ft | 434 kts | 130° |
| 2026-05-01 08:08 | 47.30653 | 23.31642 | 37333 ft | 434 kts | 130° |
| 2026-05-01 08:09 | 47.21996 | 23.44071 | 37320 ft | 435 kts | 131° |
| 2026-05-01 08:09 | 47.17651 | 23.50282 | 37331 ft | 435 kts | 131° |
| 2026-05-01 08:10 | 47.08967 | 23.62656 | 37326 ft | 435 kts | 131° |
| 2026-05-01 08:11 | 47.00295 | 23.74956 | 37343 ft | 435 kts | 132° |
| 2026-05-01 08:12 | 46.93759 | 23.84188 | 37346 ft | 435 kts | 132° |
| 2026-05-01 08:13 | 46.87209 | 23.93405 | 37334 ft | 435 kts | 132° |
| 2026-05-01 08:13 | 46.80640 | 24.02617 | 37329 ft | 436 kts | 133° |
| 2026-05-01 08:14 | 46.76217 | 24.08691 | 37330 ft | 438 kts | 138° |
| 2026-05-01 08:14 | 46.71032 | 24.13473 | 37328 ft | 443 kts | 147° |
| 2026-05-01 08:15 | 46.63173 | 24.20381 | 37338 ft | 443 kts | 150° |
| 2026-05-01 08:16 | 46.57704 | 24.24555 | 37337 ft | 443 kts | 148° |
| 2026-05-01 08:16 | 46.52311 | 24.28905 | 37346 ft | 443 kts | 148° |
| 2026-05-01 08:17 | 46.46933 | 24.33258 | 37346 ft | 443 kts | 148° |
| 2026-05-01 08:17 | 46.41552 | 24.37603 | 37353 ft | 443 kts | 148° |
| 2026-05-01 08:18 | 46.36169 | 24.41942 | 37339 ft | 442 kts | 149° |
| 2026-05-01 08:19 | 46.25433 | 24.50560 | 37329 ft | 442 kts | 149° |
| 2026-05-01 08:19 | 46.20043 | 24.54872 | 37323 ft | 442 kts | 149° |
| 2026-05-01 08:20 | 46.14655 | 24.59172 | 37318 ft | 442 kts | 149° |
| 2026-05-01 08:20 | 46.09263 | 24.63466 | 37316 ft | 442 kts | 149° |
| 2026-05-01 08:21 | 46.03881 | 24.67743 | 37317 ft | 442 kts | 149° |
| 2026-05-01 08:21 | 45.98483 | 24.72023 | 37323 ft | 442 kts | 150° |
| 2026-05-01 08:22 | 45.93089 | 24.76290 | 37324 ft | 442 kts | 150° |
| 2026-05-01 08:22 | 45.87726 | 24.80523 | 37323 ft | 442 kts | 150° |
| 2026-05-01 08:23 | 45.82332 | 24.84771 | 37324 ft | 442 kts | 150° |
| 2026-05-01 08:23 | 45.76942 | 24.89004 | 37325 ft | 442 kts | 150° |
| 2026-05-01 08:24 | 45.71553 | 24.93230 | 37325 ft | 442 kts | 150° |
| 2026-05-01 08:24 | 45.66155 | 24.97453 | 37325 ft | 442 kts | 150° |
| 2026-05-01 08:25 | 45.60750 | 25.01672 | 37320 ft | 444 kts | 150° |
| 2026-05-01 08:25 | 45.55304 | 25.05913 | 37326 ft | 447 kts | 151° |
| 2026-05-01 08:26 | 45.49890 | 25.10121 | 37319 ft | 444 kts | 151° |
| 2026-05-01 08:26 | 45.44462 | 25.14329 | 37100 ft | 445 kts | 151° |
| 2026-05-01 08:26 | 45.41736 | 25.16438 | 36637 ft | 443 kts | 151° |
| 2026-05-01 08:27 | 45.39044 | 25.18520 | 36183 ft | 440 kts | 151° |
| 2026-05-01 08:27 | 45.36356 | 25.20596 | 35760 ft | 439 kts | 151° |
| 2026-05-01 08:27 | 45.33665 | 25.22673 | 35341 ft | 442 kts | 151° |
| 2026-05-01 08:27 | 45.30956 | 25.24761 | 34930 ft | 444 kts | 150° |
| 2026-05-01 08:28 | 45.28238 | 25.26853 | 34514 ft | 445 kts | 150° |
| 2026-05-01 08:28 | 45.25509 | 25.28952 | 33906 ft | 446 kts | 150° |
| 2026-05-01 08:28 | 45.22775 | 25.31054 | 33268 ft | 445 kts | 151° |
| 2026-05-01 08:28 | 45.20062 | 25.33134 | 32637 ft | 442 kts | 151° |
| 2026-05-01 08:29 | 45.17357 | 25.35209 | 32026 ft | 441 kts | 151° |
| 2026-05-01 08:29 | 45.14686 | 25.37252 | 31439 ft | 441 kts | 151° |
| 2026-05-01 08:29 | 45.11981 | 25.39321 | 30856 ft | 442 kts | 152° |
| 2026-05-01 08:29 | 45.09287 | 25.41380 | 30271 ft | 442 kts | 152° |
| 2026-05-01 08:30 | 45.06570 | 25.43450 | 29581 ft | 443 kts | 152° |
| 2026-05-01 08:30 | 45.03861 | 25.45518 | 28918 ft | 441 kts | 152° |
| 2026-05-01 08:30 | 45.01163 | 25.47570 | 28256 ft | 438 kts | 152° |
| 2026-05-01 08:30 | 44.98500 | 25.49597 | 27614 ft | 433 kts | 151° |
| 2026-05-01 08:31 | 44.95862 | 25.51604 | 26977 ft | 428 kts | 152° |
| 2026-05-01 08:31 | 44.93250 | 25.53583 | 26352 ft | 423 kts | 151° |
| 2026-05-01 08:31 | 44.90671 | 25.55541 | 25750 ft | 417 kts | 151° |
| 2026-05-01 08:31 | 44.88126 | 25.57470 | 25114 ft | 413 kts | 151° |
| 2026-05-01 08:32 | 44.85596 | 25.59382 | 24462 ft | 411 kts | 151° |
| 2026-05-01 08:32 | 44.83117 | 25.61258 | 23824 ft | 408 kts | 151° |
| 2026-05-01 08:32 | 44.80627 | 25.63137 | 23077 ft | 405 kts | 150° |
| 2026-05-01 08:32 | 44.78156 | 25.65002 | 22341 ft | 402 kts | 150° |
| 2026-05-01 08:33 | 44.75703 | 25.66852 | 21630 ft | 399 kts | 150° |
| 2026-05-01 08:33 | 44.73262 | 25.68691 | 20941 ft | 396 kts | 150° |
| 2026-05-01 08:33 | 44.70831 | 25.70509 | 20262 ft | 393 kts | 150° |
| 2026-05-01 08:33 | 44.68411 | 25.72280 | 19612 ft | 390 kts | 151° |
| 2026-05-01 08:34 | 44.66002 | 25.74021 | 18963 ft | 388 kts | 151° |
| 2026-05-01 08:34 | 44.63605 | 25.75736 | 18292 ft | 385 kts | 151° |
| 2026-05-01 08:34 | 44.61221 | 25.77436 | 17567 ft | 382 kts | 151° |
| 2026-05-01 08:34 | 44.58857 | 25.79115 | 16861 ft | 380 kts | 151° |
| 2026-05-01 08:35 | 44.56474 | 25.80676 | 16165 ft | 378 kts | 160° |
| 2026-05-01 08:35 | 44.53919 | 25.81219 | 15477 ft | 378 kts | 181° |
| 2026-05-01 08:35 | 44.51366 | 25.80424 | 14820 ft | 376 kts | 204° |
| 2026-05-01 08:35 | 44.49221 | 25.78403 | 14168 ft | 372 kts | 226° |
| 2026-05-01 08:36 | 44.47787 | 25.75451 | 13447 ft | 365 kts | 249° |
| 2026-05-01 08:36 | 44.47275 | 25.72150 | 12718 ft | 333 kts | 273° |
| 2026-05-01 08:36 | 44.47726 | 25.69136 | 12014 ft | 306 kts | 297° |
| 2026-05-01 08:36 | 44.48724 | 25.66604 | 11342 ft | 289 kts | 304° |
| 2026-05-01 08:37 | 44.49771 | 25.64265 | 10667 ft | 279 kts | 306° |
| 2026-05-01 08:37 | 44.50821 | 25.62037 | 9987 ft | 269 kts | 307° |
| 2026-05-01 08:37 | 44.52092 | 25.60221 | 9265 ft | 256 kts | 332° |
| 2026-05-01 08:37 | 44.53762 | 25.59610 | 8540 ft | 247 kts | 3° |
| 2026-05-01 08:38 | 44.55346 | 25.60382 | 7839 ft | 243 kts | 36° |
| 2026-05-01 08:38 | 44.56586 | 25.61975 | 7195 ft | 241 kts | 44° |
| 2026-05-01 08:38 | 44.57712 | 25.63664 | 6546 ft | 239 kts | 46° |
| 2026-05-01 08:38 | 44.58763 | 25.65498 | 5852 ft | 239 kts | 61° |
| 2026-05-01 08:39 | 44.59121 | 25.67759 | 5205 ft | 242 kts | 88° |
| 2026-05-01 08:39 | 44.58715 | 25.70045 | 4570 ft | 248 kts | 113° |
| 2026-05-01 08:39 | 44.57916 | 25.72263 | 3974 ft | 261 kts | 115° |
| 2026-05-01 08:39 | 44.57080 | 25.74540 | 3405 ft | 270 kts | 115° |
| 2026-05-01 08:40 | 44.55301 | 25.79295 | 2701 ft | 270 kts | 115° |
| 2026-05-01 08:40 | 44.54429 | 25.81568 | 2639 ft | 259 kts | 112° |
| 2026-05-01 08:40 | 44.54074 | 25.83940 | 2523 ft | 242 kts | 84° |
| 2026-05-01 08:41 | 44.54317 | 25.85427 | 2537 ft | 231 kts | 67° |
| 2026-05-01 08:41 | 44.54897 | 25.87476 | 2598 ft | 224 kts | 73° |
| 2026-05-01 08:41 | 44.55078 | 25.89612 | 2579 ft | 218 kts | 84° |
| 2026-05-01 08:41 | 44.55228 | 25.91736 | 2370 ft | 220 kts | 78° |
| 2026-05-01 08:42 | 44.55442 | 25.93872 | 2194 ft | 221 kts | 81° |
| 2026-05-01 08:42 | 44.55574 | 25.95979 | 1902 ft | 208 kts | 81° |
| 2026-05-01 08:42 | 44.55731 | 25.97925 | 1638 ft | 193 kts | 80° |
| 2026-05-01 08:42 | 44.55874 | 25.99755 | 1403 ft | 188 kts | 81° |
| 2026-05-01 08:43 | 44.55992 | 26.01483 | 1250 ft | 168 kts | 80° |
| 2026-05-01 08:43 | 44.56125 | 26.03047 | 958 ft | 154 kts | 81° |
| 2026-05-01 08:43 | 44.56227 | 26.04493 | 770 ft | 145 kts | 81° |
| 2026-05-01 08:43 | 44.56332 | 26.05870 | 573 ft | 140 kts | 80° |
| 2026-05-01 08:44 | 44.56437 | 26.07199 | 437 ft | 136 kts | 79° |
| 2026-05-01 08:44 | 44.56529 | 26.08479 | 344 ft | 121 kts | 81° |
| 2026-05-01 08:44 | 44.56612 | 26.09536 | 317 ft | 98 kts | 84° |
| 2026-05-01 08:44 | 44.56641 | 26.10089 | 317 ft | 26 kts | 85° |
| 2026-05-01 08:45 | 44.56668 | 26.10263 | 315 ft | 13 kts | 36° |
| 2026-05-01 08:45 | 44.56728 | 26.10281 | 316 ft | 7 kts | 31° |
| 2026-05-01 08:45 | 44.56756 | 26.10274 | 314 ft | 5 kts | 342° |
| 2026-05-01 08:45 | 44.56800 | 26.10260 | 315 ft | 8 kts | 352° |
| 2026-05-01 08:46 | 44.56858 | 26.10249 | 314 ft | 9 kts | 352° |
| 2026-05-01 08:46 | 44.56925 | 26.10241 | 315 ft | 5 kts | 356° |